Time;durP1;ratioP1;P1;durP2;ratioP2;P2;SDS_P1;SDS_P2;PMS_P1;PMS_P2;Temp;Humidity;BMP_temperature;BMP_pressure;BME280_temperature;BME280_humidity;BME280_pressure;Samples;Min_cycle;Max_cycle;Signal;HPM_P1;HPM_P2
2021/01/18 00:02:00;;;;;;;56.70;24.50;;;4.50;99.90;;;5.53;94.54;101315.53;4977844;28;20046;-86
2021/01/18 00:04:30;;;;;;;55.25;25.08;;;4.50;99.90;;;5.14;96.14;101309.66;4993553;28;20049;-87
2021/01/18 00:07:05;;;;;;;68.82;26.08;;;4.40;99.90;;;5.14;95.76;101312.44;5014443;28;20121;-86
2021/01/18 00:09:34;;;;;;;66.30;25.88;;;4.30;99.90;;;5.21;95.05;101318.38;4998301;28;20057;-86
2021/01/18 00:12:00;;;;;;;64.93;26.30;;;4.30;99.90;;;5.17;95.76;101314.63;5015369;28;20053;-86
2021/01/18 00:14:26;;;;;;;66.90;25.75;;;4.30;99.90;;;5.23;95.42;101321.69;4997437;28;20041;-87
2021/01/18 00:16:51;;;;;;;60.03;25.80;;;4.30;99.90;;;5.32;95.17;101325.38;4987043;28;20432;-87
2021/01/18 00:19:17;;;;;;;68.00;27.75;;;4.30;99.90;;;5.28;95.57;101327.94;4997763;28;20137;-87
2021/01/18 00:21:46;;;;;;;62.72;26.33;;;4.30;99.90;;;5.24;95.24;101324.13;4979613;28;20027;-85
2021/01/18 00:24:16;;;;;;;52.42;23.00;;;4.30;99.90;;;5.09;95.58;101316.13;4980805;28;20026;-85
2021/01/18 00:26:46;;;;;;;42.10;21.45;;;4.20;99.90;;;5.27;94.96;101325.47;4983341;28;20063;-83
2021/01/18 00:29:14;;;;;;;56.75;24.25;;;4.20;99.90;;;5.32;94.93;101317.09;4992489;28;20037;-85
2021/01/18 00:31:44;;;;;;;64.97;24.42;;;4.20;99.90;;;5.31;94.92;101318.19;4981825;28;20053;-86
2021/01/18 00:34:12;;;;;;;58.08;24.23;;;4.20;99.90;;;5.26;95.19;101318.31;4995067;28;20094;-85
2021/01/18 00:36:48;;;;;;;58.45;23.75;;;4.20;99.90;;;5.28;94.97;101319.63;4993941;28;20038;-86
2021/01/18 00:39:14;;;;;;;59.53;24.20;;;4.20;99.90;;;5.33;95.67;101318.69;4995382;28;20030;-88
2021/01/18 00:41:42;;;;;;;65.35;25.20;;;4.30;99.90;;;5.39;95.12;101316.69;5012413;28;20037;-85
2021/01/18 00:44:09;;;;;;;71.65;26.88;;;4.30;99.90;;;5.27;95.64;101318.00;4993773;28;20133;-87
2021/01/18 00:46:38;;;;;;;66.97;25.67;;;4.30;99.90;;;5.34;95.81;101314.81;4977733;28;20121;-87
2021/01/18 00:49:03;;;;;;;67.70;27.23;;;4.30;99.90;;;5.31;95.85;101309.88;4983220;28;20406;-85
2021/01/18 00:51:41;;;;;;;66.13;26.25;;;4.30;99.90;;;5.36;95.65;101323.66;4977685;28;20034;-86
2021/01/18 00:54:08;;;;;;;64.70;26.35;;;4.40;99.90;;;5.35;96.45;101310.94;4997911;28;20030;-85
2021/01/18 00:56:34;;;;;;;78.78;28.27;;;4.40;99.90;;;5.39;95.56;101317.50;4998748;28;20046;-84
2021/01/18 00:59:00;;;;;;;76.40;28.17;;;4.40;99.90;;;5.42;95.47;101307.75;4995322;28;20483;-85
2021/01/18 01:01:28;;;;;;;65.20;26.65;;;4.40;99.90;;;5.41;95.42;101318.00;4980234;28;20048;-88
2021/01/18 01:03:56;;;;;;;63.47;27.63;;;4.40;99.90;;;5.44;95.91;101325.69;4997168;28;20041;-85
2021/01/18 01:06:23;;;;;;;73.00;28.05;;;4.40;99.90;;;5.42;95.76;101322.41;4997085;28;20069;-83
2021/01/18 01:08:50;;;;;;;66.35;27.90;;;4.40;99.90;;;5.40;95.88;101309.97;4998965;28;20865;-85
2021/01/18 01:11:21;;;;;;;62.60;29.00;;;4.40;99.90;;;5.44;95.71;101314.63;5016417;28;20033;-86
2021/01/18 01:13:48;;;;;;;61.17;27.52;;;4.40;99.90;;;5.47;95.11;101314.00;4999334;28;20120;-85
2021/01/18 01:16:18;;;;;;;69.88;27.25;;;4.40;99.90;;;5.41;95.03;101315.22;5015584;28;20438;-86
2021/01/18 01:18:45;;;;;;;52.95;23.90;;;4.40;99.90;;;5.35;94.71;101322.00;5015805;28;20030;-86
2021/01/18 01:21:11;;;;;;;41.45;23.55;;;4.30;99.90;;;5.36;94.49;101311.75;4999737;28;20030;-86
2021/01/18 01:23:38;;;;;;;47.45;22.52;;;4.30;99.90;;;5.36;94.48;101307.03;4998970;28;20232;-85
2021/01/18 01:26:06;;;;;;;41.35;19.70;;;4.30;99.90;;;5.30;94.43;101319.31;5016675;28;20029;-85
2021/01/18 01:28:33;;;;;;;41.15;20.48;;;4.30;99.90;;;5.33;93.98;101313.16;4998661;28;20037;-85
2021/01/18 01:31:00;;;;;;;39.13;17.70;;;4.30;99.90;;;5.23;94.56;101303.09;4998865;28;20037;-84
2021/01/18 01:33:32;;;;;;;31.58;15.88;;;4.30;99.90;;;5.22;94.20;101308.97;5016704;28;20045;-85
2021/01/18 01:36:01;;;;;;;29.67;15.90;;;4.20;99.90;;;5.13;94.58;101303.31;4998957;28;20673;-86
2021/01/18 01:38:26;;;;;;;37.67;15.73;;;4.20;99.90;;;5.06;94.70;101297.34;4999387;28;20026;-82
2021/01/18 01:40:52;;;;;;;31.65;15.57;;;4.10;99.90;;;5.08;94.19;101294.28;4997601;28;20052;-87
2021/01/18 01:43:20;;;;;;;31.17;15.63;;;4.00;99.90;;;5.01;94.59;101300.22;4998317;28;20080;-84
2021/01/18 01:45:47;;;;;;;34.78;17.27;;;4.00;99.90;;;4.96;94.79;101302.25;5000241;28;20041;-86
2021/01/18 01:48:13;;;;;;;40.72;17.33;;;3.90;99.90;;;4.87;95.16;101295.78;4996744;28;20056;-83
2021/01/18 01:50:41;;;;;;;34.45;17.35;;;3.90;99.90;;;4.93;95.54;101302.88;5010744;28;20130;-83
2021/01/18 01:53:29;;;;;;;45.65;20.17;;;3.90;99.90;;;4.94;95.26;101299.81;5012989;28;20052;-83
2021/01/18 01:55:59;;;;;;;37.95;20.63;;;3.90;99.90;;;4.81;96.30;101295.06;4996526;28;20034;-83
2021/01/18 01:58:26;;;;;;;57.33;21.77;;;3.90;99.90;;;4.84;96.26;101304.69;4994856;28;20398;-85
2021/01/18 02:00:57;;;;;;;49.75;22.45;;;3.90;99.90;;;4.94;95.69;101302.56;4995906;28;20035;-83
2021/01/18 02:03:29;;;;;;;51.63;21.10;;;3.90;99.90;;;4.97;95.74;101301.13;4996313;28;20173;-84
2021/01/18 02:05:55;;;;;;;51.83;22.40;;;3.90;99.90;;;4.97;95.79;101301.97;5013265;28;20029;-84
2021/01/18 02:08:21;;;;;;;49.72;22.05;;;4.00;99.90;;;5.02;95.73;101307.41;5012986;28;20030;-83
2021/01/18 02:10:47;;;;;;;49.95;22.50;;;3.90;99.90;;;5.05;95.93;101303.19;4997655;28;20040;-84
2021/01/18 02:13:45;;;;;;;53.60;23.63;;;4.00;99.90;;;5.02;96.34;101299.09;5017532;28;20093;-84
2021/01/18 02:16:41;;;;;;;45.70;21.05;;;4.00;99.90;;;5.04;96.18;101299.59;5000622;28;20097;-85
2021/01/18 02:19:42;;;;;;;56.47;21.95;;;4.00;99.90;;;5.03;96.60;101299.91;4999380;28;20068;-81
2021/01/18 02:22:45;;;;;;;46.85;20.02;;;4.00;99.90;;;5.09;96.40;101293.16;4999508;28;20036;-84
2021/01/18 02:25:37;;;;;;;50.50;20.85;;;4.00;99.90;;;5.09;96.29;101296.75;4980277;28;20044;-85
2021/01/18 02:28:41;;;;;;;49.05;21.77;;;4.10;99.90;;;5.12;96.17;101301.66;4980750;28;20479;-86
2021/01/18 02:32:20;;;;;;;57.90;22.35;;;4.10;99.90;;;5.13;96.43;101302.50;4998468;28;20035;-84
2021/01/18 02:35:25;;;;;;;56.33;23.38;;;4.10;99.90;;;5.19;96.55;101302.09;4995305;28;20067;-85
2021/01/18 02:38:23;;;;;;;59.88;23.02;;;4.10;99.90;;;5.22;96.10;101295.13;4999757;28;20030;-84
2021/01/18 02:41:14;;;;;;;48.50;22.55;;;4.20;99.90;;;5.16;96.42;101293.56;5000202;28;20029;-86
2021/01/18 02:43:51;;;;;;;60.22;24.13;;;4.10;99.90;;;5.24;95.97;101290.06;5017686;28;20693;-85
2021/01/18 02:46:21;;;;;;;47.67;21.17;;;4.20;99.90;;;5.22;96.35;101295.13;5018566;28;20034;-84
2021/01/18 02:48:49;;;;;;;49.55;23.33;;;4.10;99.90;;;5.09;96.26;101287.63;4999708;28;20037;-86
2021/01/18 02:51:22;;;;;;;45.42;23.77;;;4.10;99.90;;;5.01;96.77;101296.63;4996354;28;20410;-86
2021/01/18 02:54:09;;;;;;;53.53;23.30;;;4.10;99.90;;;4.99;97.31;101291.41;4983306;28;20130;-85
2021/01/18 02:56:35;;;;;;;56.78;24.50;;;4.10;99.90;;;5.15;96.58;101294.69;4996659;28;20019;-84
2021/01/18 02:59:04;;;;;;;48.78;23.15;;;4.10;99.90;;;5.05;96.15;101295.72;5023186;28;20102;-83
2021/01/18 03:02:12;;;;;;;49.67;23.58;;;4.10;99.90;;;4.91;95.97;101286.56;5020414;28;20026;-85
2021/01/18 03:05:36;;;;;;;48.22;22.15;;;4.00;99.90;;;4.91;95.34;101296.81;4982998;28;20030;-86
2021/01/18 03:08:31;;;;;;;48.88;20.98;;;3.90;99.90;;;4.75;96.14;101297.06;4992398;28;20541;-83
2021/01/18 03:11:15;;;;;;;47.60;20.67;;;3.80;99.90;;;4.84;95.54;101299.16;5000375;28;20034;-85
2021/01/18 03:14:16;;;;;;;44.65;20.02;;;3.80;99.90;;;4.82;95.53;101293.13;5000662;28;20520;-83
2021/01/18 03:16:50;;;;;;;45.92;19.02;;;3.90;99.90;;;4.77;95.39;101300.38;4990856;28;20046;-83
2021/01/18 03:19:43;;;;;;;40.55;18.55;;;3.80;99.90;;;4.75;95.58;101301.81;5000738;28;20034;-85
2021/01/18 03:22:28;;;;;;;51.03;19.02;;;3.80;99.90;;;4.68;95.38;101304.16;5019133;28;20169;-85
2021/01/18 03:25:08;;;;;;;44.78;16.65;;;3.80;99.90;;;4.73;95.33;101304.03;4999798;28;20034;-83
2021/01/18 03:27:57;;;;;;;44.35;16.85;;;3.80;99.90;;;4.72;95.17;101308.75;5000635;28;20030;-86
2021/01/18 03:30:25;;;;;;;35.75;14.98;;;3.80;99.90;;;4.67;95.54;101303.31;5017990;28;20029;-86
2021/01/18 03:32:55;;;;;;;38.50;16.02;;;3.70;99.90;;;4.77;95.22;101308.69;4998533;28;20505;-83
2021/01/18 03:35:23;;;;;;;47.35;17.20;;;3.70;99.90;;;4.72;94.99;101307.94;5000860;28;20041;-83
2021/01/18 03:37:58;;;;;;;46.13;16.60;;;3.80;99.90;;;4.63;95.62;101304.22;5000691;28;20061;-82
2021/01/18 03:40:28;;;;;;;30.60;15.55;;;3.70;99.90;;;4.67;95.31;101311.63;5017538;28;20143;-83
2021/01/18 03:43:02;;;;;;;39.67;17.55;;;3.80;99.90;;;4.45;96.50;101307.84;5000560;28;20105;-83
2021/01/18 03:45:33;;;;;;;44.17;18.63;;;3.70;99.90;;;4.67;95.79;101311.63;5016751;28;20044;-83
2021/01/18 03:47:59;;;;;;;37.80;18.48;;;3.70;99.90;;;4.57;95.95;101317.31;4982626;28;20069;-84
2021/01/18 03:50:26;;;;;;;43.60;19.50;;;3.80;99.90;;;4.57;96.27;101308.19;4998481;28;20045;-84
2021/01/18 03:52:53;;;;;;;46.33;18.55;;;3.80;99.90;;;4.73;95.74;101309.59;5014956;28;20057;-86
2021/01/18 03:55:21;;;;;;;42.05;18.75;;;3.80;99.90;;;4.68;95.49;101302.22;4990425;28;20027;-85
2021/01/18 03:57:54;;;;;;;37.03;18.95;;;3.80;99.90;;;4.54;95.91;101300.50;4978014;28;20090;-85
2021/01/18 04:00:33;;;;;;;42.08;19.63;;;3.80;99.90;;;4.63;95.52;101310.56;4978456;28;20027;-85
2021/01/18 04:03:01;;;;;;;38.40;20.13;;;3.70;99.90;;;4.66;95.53;101301.66;4979498;28;20030;-86
2021/01/18 04:05:28;;;;;;;44.88;19.52;;;3.70;99.90;;;4.67;95.48;101313.56;4979236;28;20053;-86
2021/01/18 04:07:55;;;;;;;49.03;21.80;;;3.80;99.90;;;4.66;95.61;101303.59;4978959;28;20508;-85
2021/01/18 04:10:26;;;;;;;57.80;21.42;;;3.80;99.90;;;4.65;95.70;101300.03;4993434;28;20045;-87
2021/01/18 04:12:53;;;;;;;54.25;21.58;;;3.80;99.90;;;4.67;95.02;101302.50;5014309;28;20048;-85
2021/01/18 04:15:25;;;;;;;59.28;22.15;;;3.80;99.90;;;4.59;95.59;101304.00;5013400;28;20113;-85
2021/01/18 04:17:56;;;;;;;55.05;23.25;;;3.80;99.90;;;4.61;95.80;101301.78;4998323;28;20509;-85
2021/01/18 04:20:24;;;;;;;49.22;23.05;;;3.80;99.90;;;4.68;95.52;101302.22;4999458;28;20037;-82
2021/01/18 04:23:04;;;;;;;50.80;22.55;;;3.70;99.90;;;4.64;95.34;101297.56;5018694;28;20030;-86
2021/01/18 04:25:34;;;;;;;53.78;23.70;;;3.70;99.90;;;4.50;94.99;101296.69;4996273;28;20098;-84
2021/01/18 04:28:06;;;;;;;52.20;24.52;;;3.70;99.90;;;4.33;95.48;101299.19;4979812;28;20077;-84
2021/01/18 04:30:38;;;;;;;59.78;24.98;;;3.60;99.90;;;4.38;95.59;101296.34;4980254;28;20035;-85
2021/01/18 04:33:09;;;;;;;57.67;25.40;;;3.60;99.90;;;4.39;95.46;101286.94;4978938;28;20042;-84
2021/01/18 04:35:39;;;;;;;57.33;23.80;;;3.60;99.90;;;4.35;95.27;101289.47;4997012;28;20037;-84
2021/01/18 04:38:07;;;;;;;50.75;23.17;;;3.50;99.90;;;4.33;95.68;101293.66;4979816;28;20037;-85
2021/01/18 04:40:35;;;;;;;49.50;23.13;;;3.50;99.90;;;4.36;95.74;101302.19;4997652;28;20054;-83
2021/01/18 04:43:02;;;;;;;48.97;22.63;;;3.40;99.90;;;4.38;95.41;101297.16;5014913;28;20482;-85
2021/01/18 04:45:31;;;;;;;47.33;21.02;;;3.50;99.90;;;4.42;95.96;101300.16;4990050;28;20038;-84
2021/01/18 04:48:01;;;;;;;49.92;22.05;;;3.50;99.90;;;4.40;95.79;101302.41;4997959;28;20125;-83
2021/01/18 04:50:30;;;;;;;47.85;21.00;;;3.60;99.90;;;4.55;95.24;101296.63;4998714;28;20188;-86
2021/01/18 04:53:01;;;;;;;47.80;21.83;;;3.60;99.90;;;4.47;95.59;101298.13;5014434;28;20033;-83
2021/01/18 04:55:43;;;;;;;45.08;22.48;;;3.60;99.90;;;4.48;95.71;101294.25;5014331;28;20125;-85
2021/01/18 04:58:16;;;;;;;46.55;22.90;;;3.70;99.90;;;4.50;95.29;101291.97;5016223;28;20025;-86
2021/01/18 05:00:56;;;;;;;51.85;22.13;;;3.60;99.90;;;4.47;95.72;101292.59;4998959;28;20030;-86
2021/01/18 05:03:24;;;;;;;55.17;23.65;;;3.60;99.90;;;4.61;94.93;101289.88;4999589;28;20370;-85
2021/01/18 05:06:33;;;;;;;52.15;23.27;;;3.70;99.90;;;4.61;95.56;101287.94;5019155;28;20129;-85
2021/01/18 05:09:29;;;;;;;52.55;24.88;;;3.70;99.90;;;4.59;95.65;101286.59;5019342;28;20040;-83
2021/01/18 05:11:59;;;;;;;54.03;25.35;;;3.70;99.90;;;4.54;96.06;101284.72;5017675;28;20102;-84
2021/01/18 05:14:25;;;;;;;56.22;24.35;;;3.80;99.90;;;4.72;95.00;101289.38;5000067;28;20518;-86
2021/01/18 05:17:07;;;;;;;50.30;25.77;;;3.80;99.90;;;4.73;95.15;101291.03;5000270;28;20197;-85
2021/01/18 05:19:34;;;;;;;52.67;26.25;;;3.80;99.90;;;4.72;95.45;101291.31;5020711;28;20032;-86
2021/01/18 05:22:00;;;;;;;55.75;25.55;;;3.80;99.90;;;4.65;95.49;101288.97;5020861;28;20017;-82
2021/01/18 05:24:28;;;;;;;51.35;27.30;;;3.80;99.90;;;4.75;95.55;101288.78;5035490;28;20030;-82
2021/01/18 05:27:08;;;;;;;54.85;27.25;;;3.90;99.90;;;4.68;95.61;101293.06;5005721;28;20393;-84
2021/01/18 05:29:37;;;;;;;64.07;28.13;;;3.90;99.90;;;4.64;95.46;101290.09;5018286;28;20030;-85
2021/01/18 05:32:25;;;;;;;62.13;29.52;;;3.90;99.90;;;4.71;95.66;101296.06;5000448;28;20462;-85
2021/01/18 05:35:23;;;;;;;56.42;27.33;;;3.90;99.90;;;4.85;95.50;101298.84;4997108;28;20090;-84
2021/01/18 05:38:06;;;;;;;59.17;27.90;;;3.90;99.90;;;4.82;95.58;101296.69;4991021;28;20382;-84
2021/01/18 05:40:47;;;;;;;57.00;28.13;;;3.90;99.90;;;4.81;95.49;101297.84;4997089;28;20062;-85
2021/01/18 05:43:15;;;;;;;62.03;29.38;;;3.90;99.90;;;4.82;95.12;101302.22;5014565;28;20033;-84
2021/01/18 05:45:47;;;;;;;61.15;29.95;;;3.90;99.90;;;4.86;95.23;101296.91;5013633;28;20041;-85
2021/01/18 05:48:28;;;;;;;56.30;28.83;;;3.90;99.90;;;4.86;95.13;101292.19;5012696;28;20080;-85
2021/01/18 05:50:57;;;;;;;58.42;27.38;;;3.90;99.90;;;4.83;95.14;101298.34;4997132;28;20034;-86
2021/01/18 05:53:32;;;;;;;58.20;28.98;;;3.90;99.90;;;4.86;95.53;101296.91;5013584;28;20394;-84
2021/01/18 05:56:17;;;;;;;70.20;29.95;;;3.90;99.90;;;4.81;95.05;101303.38;5013477;28;20126;-85
2021/01/18 05:58:47;;;;;;;57.80;28.05;;;3.90;99.90;;;4.90;94.76;101293.22;4997780;28;20030;-84
2021/01/18 06:01:13;;;;;;;57.38;27.73;;;3.90;99.90;;;4.89;94.68;101307.38;5019627;28;20057;-79
2021/01/18 06:03:39;;;;;;;51.42;26.85;;;3.90;99.90;;;4.88;94.81;101305.75;5020796;28;20029;-82
2021/01/18 06:06:05;;;;;;;52.03;26.20;;;3.90;99.90;;;4.90;94.98;101301.53;5003474;28;20030;-81
2021/01/18 06:08:35;;;;;;;53.38;27.45;;;3.90;99.90;;;4.99;94.53;101307.19;5020912;28;20053;-83
2021/01/18 06:11:04;;;;;;;59.33;28.90;;;3.90;99.90;;;4.88;94.66;101309.31;4984373;28;20077;-80
2021/01/18 06:13:33;;;;;;;58.08;27.95;;;4.00;99.90;;;4.88;95.28;101305.75;4996815;28;20470;-85
2021/01/18 06:16:02;;;;;;;61.72;27.83;;;4.00;99.90;;;4.91;95.13;101313.44;4976724;28;20476;-85
2021/01/18 06:18:35;;;;;;;51.38;26.67;;;4.00;99.90;;;4.73;95.22;101304.88;4976829;28;20038;-84
2021/01/18 06:21:04;;;;;;;59.10;28.00;;;4.00;99.90;;;4.88;94.88;101308.50;4995597;28;20026;-85
2021/01/18 06:23:31;;;;;;;57.33;26.73;;;4.00;99.90;;;4.91;94.66;101316.19;4977579;28;20069;-85
2021/01/18 06:25:59;;;;;;;56.13;25.92;;;4.00;99.90;;;4.96;94.17;101307.78;4978059;28;20241;-86
2021/01/18 06:28:38;;;;;;;57.35;26.35;;;4.00;99.90;;;4.95;94.54;101312.50;4978449;28;20022;-84
2021/01/18 06:31:12;;;;;;;57.08;26.75;;;4.00;99.90;;;4.93;94.57;101309.22;4995515;28;20483;-83
2021/01/18 06:33:46;;;;;;;53.05;26.92;;;4.00;99.90;;;4.90;94.40;101315.38;4978258;28;20031;-84
2021/01/18 06:36:24;;;;;;;54.15;26.02;;;4.00;99.90;;;4.95;94.70;101315.28;4994915;28;20109;-84
2021/01/18 06:38:59;;;;;;;53.65;24.63;;;4.00;99.90;;;5.01;94.47;101302.19;5005012;28;20022;-83
2021/01/18 06:41:36;;;;;;;58.23;26.57;;;4.10;99.90;;;4.93;94.68;101312.00;4996839;28;20405;-84
2021/01/18 06:44:06;;;;;;;55.15;26.08;;;4.10;99.90;;;4.98;94.21;101305.53;5014334;28;20084;-83
2021/01/18 06:46:37;;;;;;;68.63;30.88;;;4.10;99.90;;;4.88;94.44;101294.66;5014062;28;20029;-86
2021/01/18 06:49:06;;;;;;;51.00;24.42;;;4.10;99.90;;;4.95;93.99;101297.84;5014336;28;20103;-84
2021/01/18 06:51:34;;;;;;;57.03;27.55;;;4.00;99.90;;;4.91;94.05;101300.41;5014333;28;20038;-86
2021/01/18 06:54:00;;;;;;;56.90;26.63;;;4.00;99.90;;;4.91;94.61;101299.59;4997363;28;20033;-83
2021/01/18 06:57:01;;;;;;;55.17;27.20;;;4.00;99.90;;;4.85;94.61;101301.59;4999503;28;20048;-83
2021/01/18 06:59:52;;;;;;;57.38;25.52;;;4.00;99.90;;;4.85;94.50;101295.28;5003020;28;20026;-84
2021/01/18 07:02:29;;;;;;;51.65;25.38;;;4.00;99.90;;;4.84;94.86;101301.94;5018660;28;20037;-82
2021/01/18 07:05:47;;;;;;;57.95;25.73;;;3.90;99.90;;;4.88;94.68;101292.69;5018382;28;20022;-83
2021/01/18 07:08:19;;;;;;;53.47;25.52;;;3.90;99.90;;;4.81;94.73;101292.28;4980059;28;20372;-84
2021/01/18 07:10:52;;;;;;;56.42;25.70;;;3.90;99.90;;;4.85;94.96;101298.84;4999191;28;20018;-85
2021/01/18 07:13:20;;;;;;;54.90;24.45;;;4.00;99.90;;;4.78;94.88;101290.13;5001963;28;20052;-84
2021/01/18 07:15:50;;;;;;;51.88;25.70;;;4.00;99.90;;;4.79;94.41;101294.53;5001978;28;20510;-84
2021/01/18 07:18:32;;;;;;;52.08;25.13;;;4.00;99.90;;;4.72;94.71;101299.63;4996718;28;20026;-85
2021/01/18 07:21:05;;;;;;;48.22;23.45;;;4.00;99.90;;;4.81;94.72;101297.00;4999875;28;20491;-84
2021/01/18 07:23:52;;;;;;;54.83;24.75;;;3.90;99.90;;;4.77;95.00;101305.91;5004781;28;20038;-83
2021/01/18 07:26:53;;;;;;;;;;;3.90;99.90;;;4.77;95.33;101305.09;5011270;28;20033;-83
2021/01/18 07:29:25;;;;;;;50.65;24.48;;;4.00;99.90;;;4.70;95.54;101290.81;5003561;28;19909;-84
2021/01/18 07:31:58;;;;;;;48.65;24.88;;;4.00;99.90;;;4.72;94.83;101297.69;5000269;28;20493;-85
2021/01/18 07:34:27;;;;;;;62.42;25.98;;;3.90;99.90;;;4.73;95.03;101293.81;5000072;28;20034;-86
2021/01/18 07:37:10;;;;;;;52.47;24.65;;;3.90;99.90;;;4.76;94.80;101295.97;5024333;28;20029;-85
2021/01/18 07:39:46;;;;;;;57.50;25.98;;;3.90;99.90;;;4.77;94.56;101288.50;5025248;28;20099;-84
2021/01/18 07:42:27;;;;;;;51.75;23.77;;;3.90;99.90;;;4.78;95.09;101288.16;5000641;28;20078;-84
2021/01/18 07:45:16;;;;;;;50.75;23.20;;;3.90;99.90;;;4.89;94.14;101294.34;5015319;28;20078;-86
2021/01/18 07:48:05;;;;;;;49.08;23.30;;;3.90;99.90;;;4.95;94.25;101293.13;5015323;28;20097;-84
2021/01/18 07:50:38;;;;;;;56.15;24.65;;;4.00;99.90;;;4.90;93.81;101295.19;5016910;28;20025;-85
2021/01/18 07:53:13;;;;;;;49.58;25.45;;;4.00;99.90;;;4.86;94.63;101297.72;5007608;28;20021;-84
2021/01/18 07:55:39;;;;;;;58.03;25.33;;;4.00;99.90;;;4.87;94.44;101298.56;5013378;28;20064;-85
2021/01/18 07:58:20;;;;;;;52.08;27.55;;;4.00;99.90;;;4.94;93.69;101298.97;5005075;28;20486;-89
2021/01/18 08:01:07;;;;;;;50.42;26.35;;;4.10;99.90;;;4.85;94.20;101290.53;5018696;28;20030;-87
2021/01/18 08:03:33;;;;;;;;;;;4.10;99.90;;;4.98;93.85;101281.44;5019574;28;20025;-86
2021/01/18 08:06:08;;;;;;;52.70;24.65;;;4.10;99.90;;;4.97;94.09;101296.44;5018690;28;19909;-87
2021/01/18 08:08:36;;;;;;;;;;;4.10;99.90;;;4.99;93.76;101296.09;5000437;28;20041;-86
2021/01/18 08:11:17;;;;;;;52.03;24.92;;;4.20;99.90;;;5.03;93.72;101297.16;5000790;28;20254;-87
2021/01/18 08:13:59;;;;;;;50.58;25.85;;;4.20;99.90;;;4.91;94.07;101302.38;5018489;28;20030;-88
2021/01/18 08:16:41;;;;;;;56.38;25.45;;;4.20;99.90;;;4.97;94.04;101309.44;5018834;28;20026;-86
2021/01/18 08:19:17;;;;;;;50.40;24.60;;;4.20;99.90;;;4.91;94.05;101305.13;5019354;28;20026;-88
2021/01/18 08:21:57;;;;;;;53.17;24.45;;;4.20;99.90;;;4.94;94.10;101315.59;5017755;28;20030;-88
2021/01/18 08:24:23;;;;;;;48.83;22.42;;;4.20;99.90;;;5.02;93.13;101310.16;5003197;28;20026;-88
2021/01/18 08:27:07;;;;;;;42.28;21.23;;;4.20;99.90;;;4.91;93.08;101313.44;5022308;28;20092;-87
2021/01/18 08:29:52;;;;;;;49.78;21.10;;;4.20;99.90;;;4.84;93.38;101313.81;5018407;28;20022;-79
2021/01/18 08:32:31;;;;;;;50.43;21.93;;;4.20;99.90;;;4.99;93.00;101316.31;5010464;28;20366;-87
2021/01/18 08:35:21;;;;;;;49.67;20.10;;;4.10;99.90;;;5.02;92.62;101320.41;5018886;28;20280;-87
2021/01/18 08:38:07;;;;;;;43.25;19.60;;;4.20;99.90;;;4.98;92.96;101324.91;5018845;28;20494;-88
2021/01/18 08:40:48;;;;;;;46.95;22.52;;;4.20;99.90;;;5.05;92.62;101330.88;5018809;28;20034;-89
2021/01/18 08:43:24;;;;;;;43.95;19.77;;;4.20;99.90;;;4.80;92.86;101318.31;5029008;28;20033;-82
2021/01/18 08:45:56;;;;;;;43.80;21.55;;;4.20;99.90;;;4.83;92.40;101323.25;5031157;28;20053;-84
2021/01/18 08:48:29;;;;;;;42.03;21.88;;;4.20;99.90;;;4.93;91.86;101325.84;5034858;28;20010;-81
2021/01/18 08:50:58;;;;;;;41.55;19.35;;;4.20;99.90;;;5.09;92.01;101327.22;5016642;28;20025;-82
2021/01/18 08:53:46;;;;;;;44.50;22.23;;;4.30;99.90;;;5.02;92.26;101329.53;5034750;28;20026;-79
2021/01/18 08:56:21;;;;;;;43.03;20.33;;;4.30;99.90;;;4.97;92.23;101326.06;5002540;28;20084;-84
2021/01/18 08:58:48;;;;;;;55.72;21.13;;;4.30;99.90;;;5.16;92.26;101329.56;5016098;28;20044;-87
2021/01/18 09:01:30;;;;;;;56.97;22.50;;;4.30;99.90;;;5.20;91.95;101328.66;4999742;28;20045;-87
2021/01/18 09:04:05;;;;;;;46.45;22.00;;;4.30;99.90;;;5.17;91.66;101326.50;5000382;28;20029;-87
2021/01/18 09:06:31;;;;;;;49.60;22.65;;;4.30;99.90;;;5.07;92.53;101312.03;5018793;28;20095;-86
2021/01/18 09:09:08;;;;;;;53.38;23.58;;;4.30;99.90;;;5.19;92.33;101324.25;5016968;28;20034;-86
2021/01/18 09:11:35;;;;;;;44.60;23.05;;;4.30;99.90;;;5.17;91.76;101320.94;5000371;28;20421;-85
2021/01/18 09:14:05;;;;;;;57.22;23.20;;;4.40;99.90;;;5.18;92.07;101316.22;5019810;28;20088;-84
2021/01/18 09:16:30;;;;;;;56.95;24.58;;;4.40;99.90;;;5.33;91.79;101325.06;5003360;28;20339;-84
2021/01/18 09:19:06;;;;;;;51.15;23.15;;;4.40;99.90;;;5.37;91.28;101330.81;5021623;28;20026;-87
2021/01/18 09:21:33;;;;;;;42.15;21.20;;;4.50;99.90;;;5.47;91.45;101322.31;5003497;28;20456;-83
2021/01/18 09:24:06;;;;;;;45.50;20.85;;;4.50;99.90;;;5.45;91.02;101316.25;5015756;28;20061;-86
2021/01/18 09:26:33;;;;;;;35.53;18.90;;;4.60;99.90;;;5.45;90.88;101320.97;5018343;28;20482;-87
2021/01/18 09:28:58;;;;;;;42.85;19.05;;;4.60;99.90;;;5.51;90.56;101320.56;5018207;28;20026;-87
2021/01/18 09:31:25;;;;;;;46.00;18.25;;;4.60;99.90;;;5.46;91.25;101328.97;5018578;28;20366;-87
2021/01/18 09:33:52;;;;;;;35.75;16.30;;;4.60;99.90;;;5.46;91.04;101326.19;5017384;28;20033;-87
2021/01/18 09:36:24;;;;;;;39.30;17.02;;;4.70;99.90;;;5.53;91.13;101318.31;5004444;28;20402;-89
2021/01/18 09:38:50;;;;;;;37.85;16.48;;;4.70;99.90;;;5.62;90.08;101322.00;5001408;28;20022;-88
2021/01/18 09:41:17;;;;;;;36.70;15.75;;;4.70;99.90;;;5.54;90.34;101317.19;5018763;28;20017;-86
2021/01/18 09:43:45;;;;;;;32.05;15.60;;;4.70;99.90;;;5.56;90.65;101316.84;5001638;28;20029;-83
2021/01/18 09:46:14;;;;;;;39.60;14.98;;;4.70;99.90;;;5.44;90.72;101314.63;5017303;28;20030;-84
2021/01/18 09:48:41;;;;;;;32.90;15.77;;;4.70;99.90;;;5.54;90.45;101319.97;4999743;28;20393;-87
2021/01/18 09:51:13;;;;;;;35.47;14.05;;;4.70;99.90;;;5.57;90.31;101313.78;5014968;28;20033;-84
2021/01/18 09:53:39;;;;;;;37.60;15.07;;;4.70;99.90;;;5.49;90.58;101320.03;5014586;28;20037;-86
2021/01/18 09:56:13;;;;;;;34.38;15.38;;;4.80;99.90;;;5.61;90.31;101319.53;5016052;28;20062;-87
2021/01/18 09:58:54;;;;;;;37.63;17.25;;;4.80;99.90;;;5.39;91.32;101311.13;5016351;28;20077;-86
2021/01/18 10:01:26;;;;;;;39.75;16.33;;;4.80;99.90;;;5.60;90.40;101318.72;5015910;28;20022;-87
2021/01/18 10:04:02;;;;;;;30.75;16.50;;;4.80;99.90;;;5.64;90.24;101313.38;4998315;28;20036;-86
2021/01/18 10:06:33;;;;;;;43.35;18.40;;;4.80;99.90;;;5.70;89.96;101314.91;5001694;28;20033;-86
2021/01/18 10:09:10;;;;;;;37.97;16.13;;;4.80;99.90;;;5.79;89.35;101311.09;5004488;28;20494;-83
2021/01/18 10:11:46;;;;;;;39.15;18.98;;;4.90;99.90;;;5.72;89.92;101310.69;5003016;28;20482;-84
2021/01/18 10:14:28;;;;;;;44.28;17.38;;;4.90;99.90;;;5.78;89.63;101303.91;5021683;28;20031;-83
2021/01/18 10:17:17;;;;;;;43.60;17.27;;;4.90;99.90;;;5.77;89.40;101302.28;5022765;28;20022;-84
2021/01/18 10:19:43;;;;;;;44.95;16.80;;;4.90;99.90;;;5.67;90.71;101301.66;5021783;28;20030;-85
2021/01/18 10:22:19;;;;;;;40.35;17.35;;;4.90;99.90;;;5.62;90.68;101299.03;5022540;28;20140;-84
2021/01/18 10:24:56;;;;;;;37.33;15.77;;;4.90;99.90;;;5.72;89.94;101296.00;5007218;28;20180;-83
2021/01/18 10:27:28;;;;;;;35.75;14.73;;;4.90;99.90;;;5.64;89.75;101291.22;5028114;28;20095;-83
2021/01/18 10:30:20;;;;;;;33.65;15.27;;;4.90;99.90;;;5.81;89.80;101283.09;5026135;28;20034;-82
2021/01/18 10:32:51;;;;;;;30.42;15.70;;;5.00;99.90;;;5.92;89.28;101278.13;5009914;28;20053;-84
2021/01/18 10:35:35;;;;;;;41.60;15.05;;;5.10;99.90;;;5.80;88.90;101264.81;5008034;28;20494;-83
2021/01/18 10:38:25;;;;;;;37.42;14.52;;;5.20;99.90;;;5.85;89.57;101281.31;5024808;28;20153;-83
2021/01/18 10:41:02;;;;;;;39.97;14.98;;;5.30;99.90;;;5.77;89.01;101271.78;5007218;28;20034;-84
2021/01/18 10:43:29;;;;;;;34.13;12.70;;;5.30;99.90;;;5.74;88.26;101268.81;5020506;28;20026;-85
2021/01/18 10:45:59;;;;;;;36.88;14.55;;;5.20;99.90;;;5.82;88.42;101263.34;5022650;28;20070;-84